Time;durP1;ratioP1;P1;durP2;ratioP2;P2;SDS_P1;SDS_P2;PMS_P1;PMS_P2;Temp;Humidity;BMP_temperature;BMP_pressure;BME280_temperature;BME280_humidity;BME280_pressure;Samples;Min_cycle;Max_cycle;Signal;HPM_P1;HPM_P2
2022/07/06 00:02:08;;;;;;;22.43;21.13;;;;;;;;;;5072585;28;20432;-66
2022/07/06 00:04:36;;;;;;;23.30;21.90;;;;;;;;;;5072297;28;20436;-66
2022/07/06 00:07:03;;;;;;;23.30;21.90;;;;;;;;;;5072415;28;20458;-66
2022/07/06 00:09:30;;;;;;;22.07;20.87;;;;;;;;;;5072641;28;20445;-66
2022/07/06 00:11:58;;;;;;;22.77;21.57;;;;;;;;;;5076204;28;20936;-66
2022/07/06 00:14:25;;;;;;;22.57;21.37;;;;;;;;;;5076438;28;20832;-66
2022/07/06 00:16:54;;;;;;;22.90;21.60;;;;;;;;;;5076106;28;20811;-66
2022/07/06 00:19:21;;;;;;;22.63;21.33;;;;;;;;;;5075760;28;20834;-66
2022/07/06 00:21:48;;;;;;;22.30;20.90;;;;;;;;;;5076037;28;20894;-66
2022/07/06 00:24:17;;;;;;;22.30;21.10;;;;;;;;;;5076314;28;20438;-66
2022/07/06 00:26:45;;;;;;;23.10;21.90;;;;;;;;;;5076293;28;20437;-66
2022/07/06 00:29:12;;;;;;;22.77;21.37;;;;;;;;;;5076196;28;20837;-66
2022/07/06 00:31:39;;;;;;;22.77;21.43;;;;;;;;;;5076045;28;20478;-66
2022/07/06 00:34:08;;;;;;;22.60;21.30;;;;;;;;;;5075847;28;20436;-66
2022/07/06 00:36:35;;;;;;;22.27;21.07;;;;;;;;;;5076091;28;20407;-66
2022/07/06 00:39:03;;;;;;;23.07;21.70;;;;;;;;;;5075674;28;20460;-66
2022/07/06 00:41:30;;;;;;;22.87;21.67;;;;;;;;;;5075980;28;20439;-66
2022/07/06 00:43:58;;;;;;;22.00;20.90;;;;;;;;;;5075737;28;20436;-66
2022/07/06 00:46:28;;;;;;;22.87;21.33;;;;;;;;;;5075595;28;20423;-66
2022/07/06 00:48:55;;;;;;;22.40;20.80;;;;;;;;;;5075695;28;20472;-66
2022/07/06 00:51:27;;;;;;;22.67;21.37;;;;;;;;;;5075543;28;20436;-66
2022/07/06 00:53:56;;;;;;;21.40;20.30;;;;;;;;;;5075760;28;20418;-66
2022/07/06 00:56:23;;;;;;;22.73;21.33;;;;;;;;;;5075663;28;20437;-66
2022/07/06 00:58:50;;;;;;;21.90;20.57;;;;;;;;;;5075613;28;20492;-66
2022/07/06 01:01:18;;;;;;;22.93;21.70;;;;;;;;;;5075569;28;20448;-66
2022/07/06 01:03:45;;;;;;;22.60;21.40;;;;;;;;;;5075671;28;20439;-66
2022/07/06 01:06:12;;;;;;;22.90;21.60;;;;;;;;;;5075748;28;20436;-66
2022/07/06 01:08:41;;;;;;;22.70;21.50;;;;;;;;;;5075137;28;20443;-66
2022/07/06 01:11:09;;;;;;;22.33;20.93;;;;;;;;;;5075290;28;20408;-66
2022/07/06 01:13:36;;;;;;;22.17;20.63;;;;;;;;;;5075393;28;20461;-66
2022/07/06 01:16:03;;;;;;;22.20;20.90;;;;;;;;;;5075320;28;20415;-66
2022/07/06 01:18:31;;;;;;;21.80;20.60;;;;;;;;;;5074807;28;20461;-66
2022/07/06 01:21:12;;;;;;;22.47;21.13;;;;;;;;;;5074281;28;20939;-66
2022/07/06 01:23:43;;;;;;;22.00;20.70;;;;;;;;;;5074817;28;20425;-66
2022/07/06 01:26:11;;;;;;;21.70;20.40;;;;;;;;;;5075180;28;20414;-66
2022/07/06 01:28:39;;;;;;;22.33;20.93;;;;;;;;;;5075137;28;20480;-66
2022/07/06 01:31:06;;;;;;;22.50;21.00;;;;;;;;;;5075033;28;20445;-66
2022/07/06 01:33:33;;;;;;;22.17;20.87;;;;;;;;;;5075073;28;20786;-66
2022/07/06 01:36:01;;;;;;;22.17;20.97;;;;;;;;;;5074733;28;20793;-66
2022/07/06 01:38:30;;;;;;;22.50;21.30;;;;;;;;;;5074487;28;20491;-66
2022/07/06 01:40:57;;;;;;;22.60;21.30;;;;;;;;;;5075125;28;20413;-67
2022/07/06 01:43:24;;;;;;;22.30;21.10;;;;;;;;;;5074495;28;20447;-66
2022/07/06 01:45:51;;;;;;;22.50;21.00;;;;;;;;;;5074777;28;20486;-66
2022/07/06 01:48:19;;;;;;;23.57;21.90;;;;;;;;;;5074378;28;20416;-66
2022/07/06 01:50:46;;;;;;;22.67;21.37;;;;;;;;;;5074693;28;20863;-66
2022/07/06 01:53:13;;;;;;;22.30;21.00;;;;;;;;;;5074419;28;20830;-66
2022/07/06 01:55:42;;;;;;;21.73;20.43;;;;;;;;;;5074276;28;20421;-66
2022/07/06 01:58:09;;;;;;;22.43;21.13;;;;;;;;;;5074121;28;20444;-66
2022/07/06 02:00:37;;;;;;;22.13;20.97;;;;;;;;;;5074235;28;20800;-66
2022/07/06 02:03:04;;;;;;;24.37;22.87;;;;;;;;;;5074227;28;20440;-66
2022/07/06 02:05:31;;;;;;;22.50;21.30;;;;;;;;;;5074654;28;20413;-67
2022/07/06 02:07:59;;;;;;;22.53;21.30;;;;;;;;;;5074211;28;20805;-67
2022/07/06 02:10:26;;;;;;;23.20;21.47;;;;;;;;;;5074383;28;20438;-67
2022/07/06 02:12:55;;;;;;;23.37;21.77;;;;;;;;;;5073974;28;20428;-66
2022/07/06 02:15:22;;;;;;;22.60;21.20;;;;;;;;;;5074176;28;20437;-66
2022/07/06 02:17:49;;;;;;;23.17;21.60;;;;;;;;;;5074138;28;20437;-66
2022/07/06 02:20:17;;;;;;;24.40;22.80;;;;;;;;;;5073856;28;20865;-66
2022/07/06 02:22:44;;;;;;;22.23;20.87;;;;;;;;;;5074127;28;20443;-67
2022/07/06 02:25:11;;;;;;;22.90;21.40;;;;;;;;;;5072678;28;21006;-66
2022/07/06 02:27:39;;;;;;;22.60;21.40;;;;;;;;;;5073937;28;20423;-66
2022/07/06 02:30:09;;;;;;;23.37;21.97;;;;;;;;;;5073814;28;20440;-66
2022/07/06 02:32:36;;;;;;;23.23;21.90;;;;;;;;;;5073745;28;20883;-66
2022/07/06 02:35:03;;;;;;;22.00;20.80;;;;;;;;;;5073833;28;20433;-66
2022/07/06 02:37:31;;;;;;;23.67;22.27;;;;;;;;;;5073467;28;20799;-66
2022/07/06 02:39:58;;;;;;;23.57;22.17;;;;;;;;;;5073693;28;20579;-66
2022/07/06 02:42:25;;;;;;;22.73;21.20;;;;;;;;;;5073485;28;20422;-66
2022/07/06 02:44:54;;;;;;;23.00;21.50;;;;;;;;;;5073735;28;20414;-67
2022/07/06 02:47:22;;;;;;;21.87;20.77;;;;;;;;;;5073186;28;20452;-69
2022/07/06 02:49:50;;;;;;;23.70;22.40;;;;;;;;;;5073273;28;20445;-69
2022/07/06 02:52:17;;;;;;;23.50;21.90;;;;;;;;;;5073548;28;20443;-69
2022/07/06 02:54:44;;;;;;;23.20;21.77;;;;;;;;;;5073474;28;20446;-69
2022/07/06 02:57:12;;;;;;;23.47;21.87;;;;;;;;;;5073434;28;20431;-69
2022/07/06 02:59:39;;;;;;;24.00;22.20;;;;;;;;;;5073221;28;20463;-69
2022/07/06 03:02:06;;;;;;;25.30;23.70;;;;;;;;;;5073272;28;20785;-69
2022/07/06 03:04:35;;;;;;;22.87;21.53;;;;;;;;;;5072976;28;20439;-69
2022/07/06 03:07:03;;;;;;;24.40;22.90;;;;;;;;;;5073265;28;20831;-68
2022/07/06 03:09:30;;;;;;;22.53;21.23;;;;;;;;;;5072943;28;20492;-69
2022/07/06 03:11:58;;;;;;;23.37;22.03;;;;;;;;;;5073215;28;20440;-69
2022/07/06 03:14:26;;;;;;;23.27;21.77;;;;;;;;;;5072958;28;20926;-69
2022/07/06 03:16:54;;;;;;;23.67;22.17;;;;;;;;;;5073011;28;20443;-69
2022/07/06 03:19:21;;;;;;;23.20;21.63;;;;;;;;;;5072579;28;20495;-69
2022/07/06 03:21:50;;;;;;;23.00;21.67;;;;;;;;;;5072930;28;21219;-69
2022/07/06 03:24:17;;;;;;;22.60;21.30;;;;;;;;;;5072797;28;20797;-69
2022/07/06 03:26:45;;;;;;;23.33;22.03;;;;;;;;;;5073095;28;20414;-69
2022/07/06 03:29:12;;;;;;;23.50;22.00;;;;;;;;;;5073123;28;20447;-68
2022/07/06 03:31:39;;;;;;;24.37;22.27;;;;;;;;;;5072849;28;20972;-69
2022/07/06 03:34:07;;;;;;;24.87;22.37;;;;;;;;;;5072572;28;20420;-69
2022/07/06 03:36:34;;;;;;;23.87;22.47;;;;;;;;;;5072934;28;20471;-69
2022/07/06 03:39:03;;;;;;;23.47;22.07;;;;;;;;;;5072454;28;20566;-69
2022/07/06 03:41:31;;;;;;;22.93;21.43;;;;;;;;;;5072829;28;20917;-69
2022/07/06 03:43:58;;;;;;;24.30;22.30;;;;;;;;;;5072633;28;20437;-69
2022/07/06 03:46:25;;;;;;;23.73;22.17;;;;;;;;;;5072177;28;20457;-68
2022/07/06 03:48:53;;;;;;;23.00;21.37;;;;;;;;;;5072348;28;20431;-69
2022/07/06 03:51:20;;;;;;;23.33;21.73;;;;;;;;;;5072774;28;20495;-69
2022/07/06 03:53:47;;;;;;;22.87;21.47;;;;;;;;;;5072761;28;20432;-69
2022/07/06 03:56:28;;;;;;;23.30;21.90;;;;;;;;;;5072742;28;20936;-69
2022/07/06 03:58:56;;;;;;;22.40;21.10;;;;;;;;;;5072331;28;20473;-69
2022/07/06 04:01:23;;;;;;;22.60;21.20;;;;;;;;;;5072398;28;20744;-69
2022/07/06 04:03:51;;;;;;;22.60;21.40;;;;;;;;;;5072740;28;20477;-69
2022/07/06 04:06:18;;;;;;;22.73;21.43;;;;;;;;;;5072631;28;20440;-69
2022/07/06 04:08:46;;;;;;;22.53;21.33;;;;;;;;;;5072324;28;20467;-69
2022/07/06 04:11:13;;;;;;;22.90;21.50;;;;;;;;;;5072618;28;20438;-69
2022/07/06 04:13:42;;;;;;;23.17;21.77;;;;;;;;;;5072553;28;20414;-69
2022/07/06 04:16:09;;;;;;;22.97;21.57;;;;;;;;;;5072208;28;20421;-69
2022/07/06 04:18:37;;;;;;;22.97;21.47;;;;;;;;;;5071948;28;20479;-69
2022/07/06 04:21:04;;;;;;;22.87;21.47;;;;;;;;;;5072531;28;20468;-69
2022/07/06 04:23:31;;;;;;;23.20;21.90;;;;;;;;;;5072472;28;20432;-69
2022/07/06 04:25:59;;;;;;;22.97;21.40;;;;;;;;;;5072084;28;20447;-69
2022/07/06 04:28:26;;;;;;;22.80;21.50;;;;;;;;;;5072566;28;20433;-69
2022/07/06 04:30:55;;;;;;;23.27;21.80;;;;;;;;;;5072355;28;20471;-69
2022/07/06 04:33:22;;;;;;;22.70;21.20;;;;;;;;;;5072376;28;20459;-69
2022/07/06 04:35:50;;;;;;;24.13;22.63;;;;;;;;;;5072399;28;20536;-69
2022/07/06 04:38:17;;;;;;;23.20;21.70;;;;;;;;;;5072399;28;20413;-69
2022/07/06 04:40:46;;;;;;;22.83;21.33;;;;;;;;;;5071892;28;20973;-69
2022/07/06 04:43:13;;;;;;;22.43;21.10;;;;;;;;;;5072076;28;20476;-69
2022/07/06 04:45:41;;;;;;;23.60;22.10;;;;;;;;;;5072558;28;20436;-69
2022/07/06 04:48:09;;;;;;;23.40;21.90;;;;;;;;;;5072127;28;20462;-69
2022/07/06 04:50:37;;;;;;;23.10;21.50;;;;;;;;;;5071993;28;20402;-69
2022/07/06 04:53:04;;;;;;;22.93;21.60;;;;;;;;;;5071970;28;20781;-69
2022/07/06 04:55:31;;;;;;;23.27;21.80;;;;;;;;;;5072152;28;20426;-69
2022/07/06 04:57:58;;;;;;;22.47;20.97;;;;;;;;;;5074615;28;20412;-69
2022/07/06 05:00:26;;;;;;;23.13;21.53;;;;;;;;;;5075556;28;20453;-69
2022/07/06 05:02:53;;;;;;;22.87;21.67;;;;;;;;;;5075619;28;20417;-69
2022/07/06 05:05:22;;;;;;;22.33;21.03;;;;;;;;;;5075337;28;20434;-69
2022/07/06 05:07:49;;;;;;;23.40;21.90;;;;;;;;;;5075498;28;20982;-69
2022/07/06 05:10:17;;;;;;;23.40;21.87;;;;;;;;;;5075295;28;20432;-69
2022/07/06 05:12:44;;;;;;;22.87;21.47;;;;;;;;;;5075214;28;20446;-69
2022/07/06 05:15:12;;;;;;;22.40;21.20;;;;;;;;;;5075691;28;20444;-69
2022/07/06 05:17:39;;;;;;;23.87;22.17;;;;;;;;;;5075190;28;20443;-70
2022/07/06 05:20:07;;;;;;;22.43;21.13;;;;;;;;;;5075067;28;20480;-69
2022/07/06 05:22:36;;;;;;;23.10;21.70;;;;;;;;;;5075317;28;20452;-69
2022/07/06 05:25:04;;;;;;;23.10;21.70;;;;;;;;;;5075360;28;20435;-69
2022/07/06 05:27:31;;;;;;;22.63;21.43;;;;;;;;;;5073811;28;20987;-69
2022/07/06 05:29:59;;;;;;;22.47;21.07;;;;;;;;;;5075305;28;20440;-69
2022/07/06 05:32:26;;;;;;;23.83;21.77;;;;;;;;;;5074872;28;20489;-69
2022/07/06 05:34:53;;;;;;;23.57;22.17;;;;;;;;;;5074831;28;20420;-69
2022/07/06 05:37:21;;;;;;;24.37;22.87;;;;;;;;;;5075010;28;20438;-68
2022/07/06 05:39:50;;;;;;;24.17;22.47;;;;;;;;;;5074990;28;20686;-69
2022/07/06 05:42:18;;;;;;;24.30;22.77;;;;;;;;;;5074969;28;20435;-69
2022/07/06 05:44:45;;;;;;;23.17;21.77;;;;;;;;;;5074709;28;20901;-69
2022/07/06 05:50:15;;;;;;;23.63;22.23;;;;;;;;;;5074589;28;20397;-69
2022/07/06 05:52:43;;;;;;;21.80;20.70;;;;;;;;;;5074754;28;20434;-69
2022/07/06 05:55:12;;;;;;;22.33;21.10;;;;;;;;;;5074776;28;20410;-69
2022/07/06 05:57:40;;;;;;;23.10;21.47;;;;;;;;;;5074594;28;20433;-69
2022/07/06 06:00:08;;;;;;;23.90;22.27;;;;;;;;;;5074532;28;20509;-69
2022/07/06 06:02:38;;;;;;;22.80;21.30;;;;;;;;;;5073456;28;20414;-69
2022/07/06 06:05:07;;;;;;;23.60;22.00;;;;;;;;;;5074574;28;20402;-69
2022/07/06 06:07:35;;;;;;;23.77;22.27;;;;;;;;;;5074006;28;20444;-69
2022/07/06 06:10:03;;;;;;;23.23;21.73;;;;;;;;;;5074129;28;20928;-69
2022/07/06 06:12:32;;;;;;;21.77;20.47;;;;;;;;;;5074360;28;20409;-69
2022/07/06 06:14:59;;;;;;;23.03;21.03;;;;;;;;;;5074028;28;20929;-69
2022/07/06 06:17:27;;;;;;;22.47;21.17;;;;;;;;;;5073810;28;20443;-69
2022/07/06 06:19:54;;;;;;;22.53;21.33;;;;;;;;;;5073750;28;20496;-70
2022/07/06 06:22:21;;;;;;;22.80;21.43;;;;;;;;;;5074140;28;20792;-69
2022/07/06 06:24:49;;;;;;;21.17;19.77;;;;;;;;;;5074038;28;20418;-69
2022/07/06 06:27:16;;;;;;;21.00;19.60;;;;;;;;;;5074151;28;20437;-69
2022/07/06 06:29:45;;;;;;;22.20;20.90;;;;;;;;;;5073677;28;20440;-70
2022/07/06 06:32:13;;;;;;;22.17;20.70;;;;;;;;;;5073579;28;20439;-69
2022/07/06 06:34:40;;;;;;;21.90;20.60;;;;;;;;;;5073887;28;20407;-69
2022/07/06 06:37:08;;;;;;;22.13;20.80;;;;;;;;;;5073854;28;20444;-69
2022/07/06 06:39:35;;;;;;;23.30;21.60;;;;;;;;;;5073694;28;20469;-69
2022/07/06 06:42:02;;;;;;;22.90;21.30;;;;;;;;;;5073808;28;20798;-69
2022/07/06 06:44:30;;;;;;;23.00;21.50;;;;;;;;;;5073443;28;20415;-69
2022/07/06 06:46:58;;;;;;;22.37;21.17;;;;;;;;;;5073244;28;20789;-70
2022/07/06 06:49:26;;;;;;;22.63;21.20;;;;;;;;;;5071962;28;20423;-69
2022/07/06 06:51:53;;;;;;;23.07;21.67;;;;;;;;;;5073295;28;20415;-69
2022/07/06 06:54:20;;;;;;;21.97;20.67;;;;;;;;;;5073736;28;20431;-69
2022/07/06 06:56:48;;;;;;;21.70;20.40;;;;;;;;;;5073494;28;20414;-70
2022/07/06 06:59:15;;;;;;;22.87;21.57;;;;;;;;;;5073532;28;20458;-69
2022/07/06 07:01:42;;;;;;;22.10;20.90;;;;;;;;;;5072947;28;20829;-69
2022/07/06 07:04:11;;;;;;;22.87;21.57;;;;;;;;;;5073047;28;20448;-69
2022/07/06 07:06:39;;;;;;;22.67;21.17;;;;;;;;;;5073273;28;20596;-69
2022/07/06 07:09:06;;;;;;;22.67;20.90;;;;;;;;;;5073350;28;20445;-69
2022/07/06 07:11:33;;;;;;;22.50;20.93;;;;;;;;;;5072861;28;20898;-69
2022/07/06 07:14:01;;;;;;;22.57;21.07;;;;;;;;;;5072968;28;20417;-69
2022/07/06 07:16:29;;;;;;;22.33;20.87;;;;;;;;;;5072912;28;21176;-69
2022/07/06 07:18:56;;;;;;;21.57;20.17;;;;;;;;;;5072140;28;20456;-69
2022/07/06 07:21:25;;;;;;;22.27;20.60;;;;;;;;;;5072462;28;20962;-69
2022/07/06 07:23:52;;;;;;;21.90;20.40;;;;;;;;;;5073063;28;20514;-69
2022/07/06 07:26:20;;;;;;;22.63;21.33;;;;;;;;;;5072722;28;20951;-69
2022/07/06 07:28:47;;;;;;;22.70;21.40;;;;;;;;;;5072849;28;20452;-69
2022/07/06 07:31:15;;;;;;;22.07;20.50;;;;;;;;;;5072598;28;20485;-69
2022/07/06 07:33:42;;;;;;;22.37;20.90;;;;;;;;;;5072957;28;20421;-69
2022/07/06 07:36:09;;;;;;;22.27;20.97;;;;;;;;;;5072961;28;20417;-69
2022/07/06 07:38:38;;;;;;;22.73;21.30;;;;;;;;;;5072667;28;20438;-69
2022/07/06 07:41:06;;;;;;;22.73;21.23;;;;;;;;;;5072880;28;20484;-69
2022/07/06 07:43:33;;;;;;;22.53;21.17;;;;;;;;;;5072589;28;20451;-72
2022/07/06 07:46:00;;;;;;;22.57;21.27;;;;;;;;;;5072754;28;20749;-69
2022/07/06 07:48:28;;;;;;;21.67;20.37;;;;;;;;;;5072340;28;20811;-69
2022/07/06 07:50:55;;;;;;;22.17;20.80;;;;;;;;;;5072647;28;20476;-75
2022/07/06 07:53:22;;;;;;;22.50;20.97;;;;;;;;;;5073030;28;20510;-74
2022/07/06 07:55:51;;;;;;;22.13;20.90;;;;;;;;;;5072800;28;20451;-74
2022/07/06 07:58:19;;;;;;;23.67;21.87;;;;;;;;;;5073980;28;20441;-74
2022/07/06 08:00:46;;;;;;;22.00;20.50;;;;;;;;;;5073813;28;20513;-74
2022/07/06 08:03:14;;;;;;;22.00;20.43;;;;;;;;;;5072762;28;20475;-74
2022/07/06 08:05:41;;;;;;;21.83;20.60;;;;;;;;;;5072323;28;20411;-74
2022/07/06 08:08:09;;;;;;;22.60;21.40;;;;;;;;;;5072603;28;20434;-74
2022/07/06 08:10:36;;;;;;;22.33;20.83;;;;;;;;;;5072324;28;20458;-74
2022/07/06 08:13:06;;;;;;;21.80;20.70;;;;;;;;;;5072287;28;20426;-74
2022/07/06 08:15:34;;;;;;;21.43;20.10;;;;;;;;;;5072232;28;20523;-74
2022/07/06 08:18:02;;;;;;;21.17;20.07;;;;;;;;;;5072361;28;20481;-74
2022/07/06 08:20:29;;;;;;;22.40;21.03;;;;;;;;;;5072083;28;20503;-74
2022/07/06 08:22:56;;;;;;;20.53;19.50;;;;;;;;;;5072129;28;20960;-74
2022/07/06 08:25:24;;;;;;;21.43;20.03;;;;;;;;;;5072528;28;20422;-74
2022/07/06 08:27:51;;;;;;;22.37;20.97;;;;;;;;;;5072232;28;20422;-74
2022/07/06 08:30:20;;;;;;;22.40;21.10;;;;;;;;;;5072419;28;21043;-74
2022/07/06 08:32:47;;;;;;;22.70;21.40;;;;;;;;;;5076259;28;20421;-74
2022/07/06 08:35:15;;;;;;;21.63;20.33;;;;;;;;;;5076161;28;20409;-74
2022/07/06 08:37:42;;;;;;;22.13;20.47;;;;;;;;;;5076077;28;20406;-74
2022/07/06 08:40:10;;;;;;;21.50;19.97;;;;;;;;;;5075754;28;20415;-73
2022/07/06 08:42:37;;;;;;;21.87;20.53;;;;;;;;;;5076214;28;20413;-72
2022/07/06 08:45:05;;;;;;;21.63;20.33;;;;;;;;;;5075723;28;20951;-74
2022/07/06 08:47:37;;;;;;;20.87;19.67;;;;;;;;;;5075813;28;20422;-73
2022/07/06 08:50:04;;;;;;;21.73;20.27;;;;;;;;;;5075604;28;20479;-74
2022/07/06 08:52:32;;;;;;;21.60;20.20;;;;;;;;;;5075437;28;20438;-74
2022/07/06 08:55:00;;;;;;;21.80;20.13;;;;;;;;;;5075790;28;20415;-74
2022/07/06 08:57:28;;;;;;;22.83;21.00;;;;;;;;;;5075689;28;20554;-74
2022/07/06 08:59:55;;;;;;;21.10;19.90;;;;;;;;;;5075722;28;20435;-74
2022/07/06 09:02:25;;;;;;;20.80;19.60;;;;;;;;;;5075636;28;20459;-74
2022/07/06 09:04:56;;;;;;;21.17;19.97;;;;;;;;;;5075330;28;20445;-74
2022/07/06 09:07:24;;;;;;;21.90;20.30;;;;;;;;;;5075652;28;20476;-74
2022/07/06 09:09:52;;;;;;;22.10;20.80;;;;;;;;;;5075541;28;20419;-74
2022/07/06 09:12:19;;;;;;;23.43;22.00;;;;;;;;;;5075244;28;20425;-74
2022/07/06 09:14:46;;;;;;;23.53;22.10;;;;;;;;;;5075157;28;20439;-74
2022/07/06 09:17:13;;;;;;;23.97;22.57;;;;;;;;;;5075325;28;20456;-74
2022/07/06 09:19:41;;;;;;;23.20;21.70;;;;;;;;;;5074984;28;20495;-74
2022/07/06 09:22:09;;;;;;;22.70;21.50;;;;;;;;;;5075048;28;21183;-74
2022/07/06 09:24:43;;;;;;;22.67;21.47;;;;;;;;;;5075185;28;20445;-74
2022/07/06 09:27:17;;;;;;;22.33;21.13;;;;;;;;;;5075069;28;20876;-74
2022/07/06 09:29:44;;;;;;;23.20;21.80;;;;;;;;;;5075210;28;20475;-74
2022/07/06 09:32:12;;;;;;;22.80;21.37;;;;;;;;;;5074803;28;20409;-73
2022/07/06 09:34:43;;;;;;;22.70;21.30;;;;;;;;;;5075128;28;21084;-73
2022/07/06 09:37:11;;;;;;;23.23;21.93;;;;;;;;;;5074915;28;20487;-74
2022/07/06 09:39:39;;;;;;;23.00;21.60;;;;;;;;;;5074706;28;20440;-74
2022/07/06 09:42:08;;;;;;;23.87;22.30;;;;;;;;;;5074068;28;20457;-74
2022/07/06 09:44:36;;;;;;;22.50;20.80;;;;;;;;;;5074755;28;20414;-74
2022/07/06 09:47:05;;;;;;;22.73;21.33;;;;;;;;;;5074629;28;20893;-73
2022/07/06 09:49:33;;;;;;;22.47;21.07;;;;;;;;;;5074368;28;20468;-74
2022/07/06 09:52:01;;;;;;;21.73;20.43;;;;;;;;;;5074691;28;20415;-74
2022/07/06 09:54:30;;;;;;;22.20;20.80;;;;;;;;;;5074710;28;20764;-74
2022/07/06 09:56:58;;;;;;;22.20;20.90;;;;;;;;;;5074731;28;20437;-74
2022/07/06 09:59:26;;;;;;;22.73;21.30;;;;;;;;;;5074584;28;20410;-71
2022/07/06 10:01:54;;;;;;;23.70;22.00;;;;;;;;;;5074526;28;20454;-71
2022/07/06 10:04:22;;;;;;;22.10;20.70;;;;;;;;;;5074870;28;20874;-71
2022/07/06 10:06:49;;;;;;;23.07;21.50;;;;;;;;;;5073970;28;20807;-71
2022/07/06 10:09:17;;;;;;;22.47;20.97;;;;;;;;;;5074421;28;20523;-71
2022/07/06 10:11:49;;;;;;;22.47;21.17;;;;;;;;;;5074314;28;20455;-71
2022/07/06 10:14:19;;;;;;;22.80;21.57;;;;;;;;;;5074110;28;20505;-71
2022/07/06 10:16:47;;;;;;;22.80;21.23;;;;;;;;;;5074328;28;20408;-71
2022/07/06 10:19:15;;;;;;;23.20;21.60;;;;;;;;;;5073873;28;20490;-71
2022/07/06 10:21:43;;;;;;;22.47;21.27;;;;;;;;;;5074096;28;20481;-71
2022/07/06 10:24:10;;;;;;;22.97;21.37;;;;;;;;;;5074168;28;20418;-71
2022/07/06 10:26:38;;;;;;;23.17;21.77;;;;;;;;;;5073748;28;20446;-73
2022/07/06 10:29:07;;;;;;;22.40;20.93;;;;;;;;;;5073573;28;20455;-73
2022/07/06 10:31:35;;;;;;;23.13;21.53;;;;;;;;;;5073934;28;20888;-73
2022/07/06 10:34:04;;;;;;;21.83;20.57;;;;;;;;;;5073626;28;20421;-73
2022/07/06 10:36:31;;;;;;;22.13;20.83;;;;;;;;;;5073830;28;20419;-73
2022/07/06 10:41:02;;;;;;;22.03;20.80;;;;;;;;;;5073845;28;20445;-73
2022/07/06 10:41:45;;;;;;;22.60;21.20;;;;;;;;;;5073668;28;20508;-73
2022/07/06 10:44:21;;;;;;;22.70;21.30;;;;;;;;;;5073779;28;20412;-73
2022/07/06 10:46:53;;;;;;;22.00;20.80;;;;;;;;;;5073380;28;20422;-73
2022/07/06 10:49:20;;;;;;;22.10;20.80;;;;;;;;;;5073123;28;20459;-73
2022/07/06 10:51:49;;;;;;;22.83;21.40;;;;;;;;;;5073292;28;20776;-73
2022/07/06 10:54:16;;;;;;;22.67;21.30;;;;;;;;;;5069996;28;20420;-73
2022/07/06 10:56:44;;;;;;;22.30;21.10;;;;;;;;;;5073413;28;20421;-74
2022/07/06 10:59:12;;;;;;;23.77;22.10;;;;;;;;;;5073487;28;20475;-73
2022/07/06 11:01:43;;;;;;;22.60;21.00;;;;;;;;;;5072966;28;20977;-73
2022/07/06 11:04:10;;;;;;;22.90;21.50;;;;;;;;;;5072876;28;20460;-73
2022/07/06 11:06:38;;;;;;;21.97;20.57;;;;;;;;;;5073306;28;20838;-74
2022/07/06 11:09:07;;;;;;;22.90;21.60;;;;;;;;;;5072987;28;20931;-73
2022/07/06 11:11:41;;;;;;;22.63;21.23;;;;;;;;;;5073211;28;20518;-73
2022/07/06 11:14:09;;;;;;;22.77;21.47;;;;;;;;;;5072964;28;20414;-73
2022/07/06 11:16:38;;;;;;;22.90;21.50;;;;;;;;;;5073202;28;20463;-73
2022/07/06 11:19:11;;;;;;;23.00;21.60;;;;;;;;;;5072485;28;20467;-74
2022/07/06 11:21:42;;;;;;;22.67;21.47;;;;;;;;;;5072779;28;20458;-73
2022/07/06 11:24:12;;;;;;;22.40;20.90;;;;;;;;;;5073147;28;20406;-73
2022/07/06 11:26:40;;;;;;;23.13;21.63;;;;;;;;;;5073035;28;20846;-73
2022/07/06 11:29:08;;;;;;;22.33;21.03;;;;;;;;;;5073207;28;20426;-74
2022/07/06 11:31:37;;;;;;;22.40;21.00;;;;;;;;;;5073075;28;20478;-73
2022/07/06 11:34:05;;;;;;;26.03;21.27;;;;;;;;;;5072686;28;20939;-74
2022/07/06 11:36:33;;;;;;;22.70;21.30;;;;;;;;;;5072801;28;20414;-73
2022/07/06 11:39:01;;;;;;;21.43;20.10;;;;;;;;;;5072817;28;20411;-73
2022/07/06 11:41:28;;;;;;;22.83;21.47;;;;;;;;;;5072745;28;20455;-74
2022/07/06 11:43:55;;;;;;;22.53;21.33;;;;;;;;;;5072537;28;20427;-72
2022/07/06 11:46:24;;;;;;;23.03;21.53;;;;;;;;;;5072714;28;20421;-74
2022/07/06 11:48:51;;;;;;;22.20;20.73;;;;;;;;;;5072710;28;20415;-72
2022/07/06 11:51:19;;;;;;;22.47;21.07;;;;;;;;;;5072622;28;20410;-73
2022/07/06 11:53:49;;;;;;;21.87;20.60;;;;;;;;;;5072825;28;20419;-72
2022/07/06 11:56:18;;;;;;;22.17;20.90;;;;;;;;;;5072313;28;20415;-72
2022/07/06 11:58:46;;;;;;;22.63;21.33;;;;;;;;;;5072748;28;20471;-72
2022/07/06 12:01:15;;;;;;;23.00;21.53;;;;;;;;;;5072298;28;20419;-72
2022/07/06 12:03:43;;;;;;;21.67;20.33;;;;;;;;;;5072625;28;20814;-72
2022/07/06 12:06:15;;;;;;;22.50;20.87;;;;;;;;;;5074130;28;20427;-72
2022/07/06 12:08:42;;;;;;;23.00;21.40;;;;;;;;;;5076652;28;20430;-72
2022/07/06 12:11:11;;;;;;;23.87;22.30;;;;;;;;;;5076309;28;20949;-72
2022/07/06 12:13:42;;;;;;;23.40;21.80;;;;;;;;;;5076300;28;20418;-72
2022/07/06 12:16:13;;;;;;;24.00;22.50;;;;;;;;;;5076613;28;20770;-72
2022/07/06 12:18:41;;;;;;;24.97;23.57;;;;;;;;;;5075762;28;20412;-72
2022/07/06 12:21:09;;;;;;;24.47;22.67;;;;;;;;;;5076531;28;20440;-72
2022/07/06 12:23:40;;;;;;;24.40;23.00;;;;;;;;;;5076351;28;20510;-72
2022/07/06 12:26:07;;;;;;;23.47;22.10;;;;;;;;;;5076237;28;20456;-72
2022/07/06 12:28:36;;;;;;;24.10;22.60;;;;;;;;;;5076005;28;20459;-72
2022/07/06 12:31:03;;;;;;;23.50;22.20;;;;;;;;;;5075845;28;20458;-75
2022/07/06 12:33:30;;;;;;;23.33;21.63;;;;;;;;;;5075960;28;20924;-72
2022/07/06 12:35:58;;;;;;;22.33;20.87;;;;;;;;;;5075875;28;20506;-72
2022/07/06 12:38:26;;;;;;;22.73;21.33;;;;;;;;;;5075747;28;20452;-77
2022/07/06 12:40:53;;;;;;;22.87;21.50;;;;;;;;;;5075791;28;20772;-73
2022/07/06 12:43:37;;;;;;;22.67;21.37;;;;;;;;;;5075914;28;20867;-73
2022/07/06 12:46:23;;;;;;;22.53;21.33;;;;;;;;;;5076167;28;20419;-73
2022/07/06 12:48:54;;;;;;;23.73;22.23;;;;;;;;;;5075573;28;20438;-73
2022/07/06 12:51:21;;;;;;;22.97;21.57;;;;;;;;;;5075603;28;20441;-73
2022/07/06 12:53:49;;;;;;;23.77;22.40;;;;;;;;;;5075846;28;20417;-73
2022/07/06 12:56:17;;;;;;;23.73;22.07;;;;;;;;;;5075706;28;20419;-73
2022/07/06 12:58:58;;;;;;;23.00;21.60;;;;;;;;;;5075889;28;20422;-73
2022/07/06 13:01:25;;;;;;;24.07;22.43;;;;;;;;;;5075474;28;20771;-72
2022/07/06 13:03:56;;;;;;;22.47;21.27;;;;;;;;;;5075746;28;20449;-73
2022/07/06 13:06:34;;;;;;;23.40;21.90;;;;;;;;;;5075410;28;20437;-73
2022/07/06 13:09:01;;;;;;;22.40;21.07;;;;;;;;;;5075600;28;20411;-73
2022/07/06 13:11:29;;;;;;;23.40;21.93;;;;;;;;;;5075536;28;20404;-73
2022/07/06 13:13:57;;;;;;;23.70;22.20;;;;;;;;;;5075220;28;20510;-73
2022/07/06 13:16:30;;;;;;;23.60;22.30;;;;;;;;;;5075178;28;20772;-73
2022/07/06 13:18:57;;;;;;;24.07;22.70;;;;;;;;;;5073632;28;20441;-74
2022/07/06 13:21:24;;;;;;;23.97;22.57;;;;;;;;;;5075162;28;20419;-74
2022/07/06 13:23:52;;;;;;;24.33;22.73;;;;;;;;;;5074981;28;20489;-74
2022/07/06 13:26:19;;;;;;;22.67;21.20;;;;;;;;;;5075135;28;20440;-74
2022/07/06 13:28:46;;;;;;;23.60;22.30;;;;;;;;;;5075018;28;20449;-74
2022/07/06 13:31:15;;;;;;;23.63;22.10;;;;;;;;;;5074866;28;20440;-74
2022/07/06 13:33:43;;;;;;;21.90;20.70;;;;;;;;;;5078198;28;20461;-74
2022/07/06 13:36:10;;;;;;;22.03;20.80;;;;;;;;;;5082973;28;20819;-74
2022/07/06 13:38:37;;;;;;;22.50;21.17;;;;;;;;;;5094218;28;20494;-74
2022/07/06 13:41:05;;;;;;;23.23;22.03;;;;;;;;;;5094776;28;20457;-74
2022/07/06 13:43:36;;;;;;;23.57;22.07;;;;;;;;;;5094683;28;20465;-74
2022/07/06 13:46:04;;;;;;;24.57;23.07;;;;;;;;;;5089568;28;20460;-74
2022/07/06 13:48:34;;;;;;;24.37;22.97;;;;;;;;;;5085638;28;20448;-74
2022/07/06 13:51:01;;;;;;;22.60;21.30;;;;;;;;;;5085236;28;20436;-74
2022/07/06 13:53:30;;;;;;;22.73;21.43;;;;;;;;;;5093907;28;20432;-74
2022/07/06 13:55:57;;;;;;;24.67;22.90;;;;;;;;;;5094489;28;20880;-74
2022/07/06 13:58:24;;;;;;;24.20;22.70;;;;;;;;;;5094807;28;20450;-74
2022/07/06 14:00:52;;;;;;;23.30;21.90;;;;;;;;;;5094856;28;20407;-73
2022/07/06 14:03:19;;;;;;;23.30;21.90;;;;;;;;;;5094487;28;20518;-74
2022/07/06 14:05:48;;;;;;;23.13;21.73;;;;;;;;;;5094325;28;20775;-73
2022/07/06 14:08:15;;;;;;;23.93;22.53;;;;;;;;;;5094435;28;20418;-74
2022/07/06 14:10:43;;;;;;;22.80;21.50;;;;;;;;;;5094322;28;20914;-73
2022/07/06 14:13:10;;;;;;;22.60;21.30;;;;;;;;;;5092266;28;20418;-73
2022/07/06 14:15:37;;;;;;;22.27;20.97;;;;;;;;;;5073421;28;20805;-77
2022/07/06 14:18:05;;;;;;;24.00;22.60;;;;;;;;;;5073953;28;20805;-77
2022/07/06 14:20:33;;;;;;;23.73;22.43;;;;;;;;;;5073705;28;20470;-77
2022/07/06 14:23:01;;;;;;;23.67;22.23;;;;;;;;;;5073746;28;20542;-74
2022/07/06 14:25:29;;;;;;;22.80;21.50;;;;;;;;;;5073893;28;20510;-74